Time;durP1;ratioP1;P1;durP2;ratioP2;P2;SDS_P1;SDS_P2;PMS_P1;PMS_P2;Temp;Humidity;BMP_temperature;BMP_pressure;BME280_temperature;BME280_humidity;BME280_pressure;Samples;Min_cycle;Max_cycle;Signal;HPM_P1;HPM_P2
2022/05/26 06:19:28;;;;;;;1.80;1.45;;;22.50;92.40;;;;;;6146365;28;88859;-67
2022/05/26 06:22:30;;;;;;;2.95;1.65;;;22.50;91.40;;;;;;6156073;28;87955;-67
2022/05/26 06:25:32;;;;;;;4.18;1.75;;;22.50;91.70;;;;;;6158638;28;89605;-67
2022/05/26 06:38:36;;;;;;;4.65;1.80;;;22.50;91.20;;;;;;6158989;28;87755;-65
2022/05/26 06:44:58;;;;;;;2.67;1.40;;;22.60;92.30;;;;;;6160659;28;87429;-66
2022/05/26 06:48:00;;;;;;;3.33;1.45;;;22.50;92.10;;;;;;6155978;28;89128;-66
2022/05/26 06:51:06;;;;;;;2.35;1.50;;;22.60;92.20;;;;;;6153338;28;90031;-66
2022/05/26 06:54:08;;;;;;;1.88;1.40;;;22.50;92.10;;;;;;6159000;28;89099;-65
2022/05/26 06:57:12;;;;;;;2.85;1.70;;;22.50;92.20;;;;;;6159736;28;89462;-67
2022/05/26 07:00:15;;;;;;;2.55;1.50;;;22.60;92.20;;;;;;6159629;28;88027;-68
2022/05/26 07:03:17;;;;;;;1.83;1.42;;;22.60;92.10;;;;;;6157400;28;89043;-66
2022/05/26 07:06:23;;;;;;;3.22;1.48;;;22.60;92.00;;;;;;6146450;28;89132;-66
2022/05/26 07:09:26;;;;;;;3.28;1.55;;;22.60;92.20;;;;;;6159432;28;89175;-66
2022/05/26 07:12:28;;;;;;;5.72;2.00;;;22.60;93.60;;;;;;6158961;28;88311;-66
2022/05/26 07:15:33;;;;;;;4.97;1.95;;;22.60;97.90;;;;;;6159111;28;89475;-65
2022/05/26 07:18:35;;;;;;;7.70;2.40;;;22.60;95.90;;;;;;6158386;28;89020;-65
2022/05/26 07:21:38;;;;;;;8.40;3.35;;;22.60;96.00;;;;;;6158371;28;90045;-66
2022/05/26 07:24:41;;;;;;;13.40;3.47;;;22.60;94.80;;;;;;6146684;28;89367;-67
2022/05/26 07:27:43;;;;;;;16.02;4.80;;;22.60;92.90;;;;;;6158881;28;89369;-67
2022/05/26 07:30:45;;;;;;;12.43;4.10;;;22.60;92.10;;;;;;6154845;28;89327;-68
2022/05/26 07:33:47;;;;;;;16.67;5.50;;;22.60;91.70;;;;;;6157759;28;89089;-66
2022/05/26 07:43:30;;;;;;;7.55;2.33;;;22.60;90.40;;;;;;6156803;28;86486;-66
2022/05/26 07:46:32;;;;;;;8.25;2.70;;;22.60;89.60;;;;;;6145368;28;89071;-67
2022/05/26 07:49:34;;;;;;;9.95;2.85;;;22.60;88.80;;;;;;6145403;28;89004;-67
2022/05/26 07:52:38;;;;;;;17.45;4.13;;;22.50;88.90;;;;;;6149352;28;90068;-66
2022/05/26 07:55:42;;;;;;;18.00;4.88;;;22.50;89.10;;;;;;6158630;28;89161;-66
2022/05/26 07:58:44;;;;;;;28.00;8.05;;;22.50;90.00;;;;;;6154318;28;89406;-67
2022/05/26 08:01:48;;;;;;;33.65;9.13;;;22.50;90.50;;;;;;6149497;28;89104;-66
2022/05/26 08:04:50;;;;;;;29.30;9.13;;;22.50;91.30;;;;;;6144716;28;89157;-67
2022/05/26 08:07:53;;;;;;;21.55;6.78;;;22.50;91.50;;;;;;6135006;28;92212;-67
2022/05/26 08:10:55;;;;;;;21.48;6.32;;;22.50;91.30;;;;;;6154961;28;89108;-66
2022/05/26 08:13:57;;;;;;;14.82;4.80;;;22.50;91.10;;;;;;6145869;28;88356;-67
2022/05/26 08:17:00;;;;;;;12.60;4.50;;;22.50;90.90;;;;;;6148111;28;89394;-66
2022/05/26 08:20:02;;;;;;;11.55;4.18;;;22.50;90.80;;;;;;6141586;28;89365;-67
2022/05/26 08:23:06;;;;;;;11.60;3.75;;;22.50;90.70;;;;;;6140323;28;90108;-66
2022/05/26 08:26:08;;;;;;;9.95;3.42;;;22.50;90.50;;;;;;6158059;28;89114;-66
2022/05/26 08:29:10;;;;;;;8.52;3.33;;;22.60;90.40;;;;;;6144890;28;89283;-66
2022/05/26 08:32:12;;;;;;;9.85;3.05;;;22.50;90.20;;;;;;6138506;28;88026;-67
2022/05/26 08:35:14;;;;;;;7.60;3.53;;;22.60;90.20;;;;;;6152227;28;89095;-67
2022/05/26 08:38:17;;;;;;;7.60;3.28;;;22.60;90.20;;;;;;6149417;28;89109;-66
2022/05/26 08:41:22;;;;;;;6.97;2.60;;;22.60;90.00;;;;;;6159439;28;89283;-66
2022/05/26 08:44:29;;;;;;;7.20;2.85;;;22.50;89.90;;;;;;6153680;28;87264;-66
2022/05/26 08:47:36;;;;;;;6.10;2.88;;;22.50;89.70;;;;;;6161560;28;89124;-66
2022/05/26 08:50:40;;;;;;;6.10;2.65;;;22.60;89.70;;;;;;6137943;28;89075;-65
2022/05/26 08:53:44;;;;;;;4.40;2.40;;;22.60;89.30;;;;;;6150055;28;89864;-66
2022/05/26 08:56:47;;;;;;;4.93;2.10;;;22.60;89.30;;;;;;6161685;28;88005;-66
2022/05/26 08:59:49;;;;;;;5.18;2.28;;;22.60;89.30;;;;;;6139510;28;89117;-66
2022/05/26 09:02:55;;;;;;;5.20;1.80;;;22.60;89.20;;;;;;6146006;28;89082;-66
2022/05/26 09:06:02;;;;;;;6.05;2.13;;;22.60;88.90;;;;;;6141657;28;89104;-66
2022/05/26 09:15:51;;;;;;;4.22;1.92;;;22.60;88.70;;;;;;6162745;28;86601;-66
2022/05/26 09:19:11;;;;;;;4.57;2.00;;;22.60;88.50;;;;;;6153585;28;89084;-67
2022/05/26 09:22:27;;;;;;;3.90;1.77;;;22.60;88.40;;;;;;6143908;28;89007;-66
2022/05/26 09:25:38;;;;;;;4.30;2.03;;;22.60;88.50;;;;;;6154207;28;90062;-67
2022/05/26 09:28:44;;;;;;;4.43;2.10;;;22.60;88.70;;;;;;6149657;28;89093;-66
2022/05/26 09:31:48;;;;;;;4.32;1.92;;;22.60;88.70;;;;;;6149778;28;89055;-67
2022/05/26 09:35:07;;;;;;;3.47;1.90;;;22.60;88.60;;;;;;6149940;28;89476;-65
2022/05/26 09:38:17;;;;;;;3.63;1.60;;;22.50;88.30;;;;;;6152726;28;89121;-67
2022/05/26 09:41:20;;;;;;;2.85;1.70;;;22.60;88.30;;;;;;6161054;28;89443;-66
2022/05/26 09:44:38;;;;;;;3.20;1.80;;;22.60;88.20;;;;;;6147827;28;89647;-67
2022/05/26 09:47:48;;;;;;;3.05;1.60;;;22.50;88.20;;;;;;6148645;28;87213;-67
2022/05/26 09:50:53;;;;;;;3.35;1.67;;;22.60;88.40;;;;;;6148115;28;89053;-66
2022/05/26 09:53:56;;;;;;;3.45;1.70;;;22.60;88.40;;;;;;6148229;28;89200;-66
2022/05/26 09:57:13;;;;;;;2.28;1.30;;;22.50;88.10;;;;;;6148128;28;90219;-66
2022/05/26 10:00:31;;;;;;;3.20;1.60;;;22.60;88.40;;;;;;6149260;28;89547;-66
2022/05/26 10:03:42;;;;;;;3.67;1.70;;;22.60;88.40;;;;;;6136626;28;89104;-66
2022/05/26 10:06:49;;;;;;;3.13;1.52;;;22.60;88.30;;;;;;6136816;28;89148;-66
2022/05/26 10:10:13;;;;;;;2.90;1.40;;;22.60;88.40;;;;;;6149705;28;89220;-66
2022/05/26 10:13:41;;;;;;;3.33;1.50;;;22.60;88.50;;;;;;6138050;28;89227;-66
2022/05/26 10:16:48;;;;;;;3.47;1.52;;;22.50;88.60;;;;;;6146611;28;89054;-67
2022/05/26 10:20:10;;;;;;;2.85;1.40;;;22.60;88.60;;;;;;6148141;28;88323;-67
2022/05/26 10:23:31;;;;;;;1.90;1.20;;;22.60;88.60;;;;;;6147684;28;89182;-67
2022/05/26 10:26:41;;;;;;;4.13;1.63;;;22.50;88.70;;;;;;6136701;28;89048;-66
2022/05/26 10:29:58;;;;;;;2.78;1.40;;;22.50;88.90;;;;;;6135526;28;90052;-66
2022/05/26 10:33:20;;;;;;;2.28;1.30;;;22.50;89.00;;;;;;6147739;28;89056;-67
2022/05/26 10:36:27;;;;;;;2.35;1.20;;;22.50;89.00;;;;;;6145500;28;89182;-65
2022/05/26 10:39:49;;;;;;;2.72;1.45;;;22.60;89.00;;;;;;6148519;28;88284;-66
2022/05/26 10:42:56;;;;;;;3.00;1.65;;;22.60;88.90;;;;;;6149783;28;88330;-66
2022/05/26 10:46:03;;;;;;;3.53;1.45;;;22.60;88.80;;;;;;6145653;28;89393;-67
2022/05/26 10:49:12;;;;;;;2.65;1.40;;;22.60;88.80;;;;;;6148493;28;89477;-66
2022/05/26 10:52:19;;;;;;;2.00;1.20;;;22.50;88.80;;;;;;6160005;28;88358;-66
2022/05/26 10:55:27;;;;;;;2.55;1.30;;;22.50;88.70;;;;;;6147465;28;89143;-66
2022/05/26 10:58:33;;;;;;;2.85;1.30;;;22.50;88.80;;;;;;6147444;28;87952;-66
2022/05/26 11:01:41;;;;;;;2.15;1.20;;;22.50;88.80;;;;;;6135155;28;90073;-66
2022/05/26 11:04:51;;;;;;;2.45;1.20;;;22.60;88.90;;;;;;6145808;28;89224;-66
2022/05/26 11:07:56;;;;;;;2.88;1.48;;;22.50;88.80;;;;;;6159465;28;89023;-66
2022/05/26 11:11:03;;;;;;;3.13;1.42;;;22.50;88.70;;;;;;6160396;28;89079;-67
2022/05/26 11:17:21;;;;;;;2.90;1.23;;;22.50;88.70;;;;;;6151403;28;89215;-66
2022/05/26 11:17:42;;;;;;;1.90;1.20;;;22.50;88.60;;;;;;6148440;28;88653;-66
2022/05/26 11:20:50;;;;;;;1.92;1.30;;;22.50;88.40;;;;;;6157505;28;88059;-67
2022/05/26 11:23:53;;;;;;;2.00;1.17;;;22.50;88.10;;;;;;6151459;28;88350;-67
2022/05/26 11:26:59;;;;;;;2.35;1.30;;;22.60;88.30;;;;;;6156299;28;89133;-67
2022/05/26 11:30:04;;;;;;;1.33;1.17;;;22.60;88.20;;;;;;6150504;28;89074;-66
2022/05/26 11:36:43;;;;;;;1.23;1.13;;;22.50;88.30;;;;;;6155565;28;87349;-66
2022/05/26 11:39:46;;;;;;;2.40;1.23;;;22.50;88.40;;;;;;6149699;28;89089;-66
2022/05/26 11:42:55;;;;;;;2.38;1.30;;;22.50;88.30;;;;;;6159414;28;89058;-66
2022/05/26 11:45:59;;;;;;;2.42;1.20;;;22.50;88.00;;;;;;6157084;28;89127;-67
2022/05/26 11:49:02;;;;;;;1.92;1.30;;;22.50;88.00;;;;;;6147367;28;89105;-67
2022/05/26 11:52:11;;;;;;;2.40;1.30;;;22.50;88.00;;;;;;6135098;28;89185;-66
2022/05/26 11:55:18;;;;;;;1.40;1.20;;;22.50;88.10;;;;;;6147799;28;88373;-67
2022/05/26 11:58:35;;;;;;;1.58;1.10;;;22.50;88.30;;;;;;6157677;28;88951;-66
2022/05/26 12:01:39;;;;;;;1.92;1.23;;;22.50;88.30;;;;;;6145771;28;89104;-66
2022/05/26 12:04:45;;;;;;;1.40;1.17;;;22.50;88.30;;;;;;6148091;28;88951;-66
2022/05/26 12:07:48;;;;;;;1.70;1.00;;;22.50;88.20;;;;;;6156362;28;89210;-66
2022/05/26 12:10:53;;;;;;;2.63;1.15;;;22.50;88.10;;;;;;6145219;28;89071;-66
2022/05/26 12:14:02;;;;;;;1.75;1.20;;;22.50;88.00;;;;;;6157610;28;89028;-66
2022/05/26 12:17:27;;;;;;;1.63;1.10;;;22.50;87.80;;;;;;6145303;28;89191;-66
2022/05/26 12:20:38;;;;;;;3.47;1.13;;;22.50;87.60;;;;;;6158541;28;88978;-67
2022/05/26 12:23:42;;;;;;;3.08;1.25;;;22.50;87.50;;;;;;6147568;28;89765;-67
2022/05/26 12:26:52;;;;;;;1.88;1.30;;;22.50;87.60;;;;;;6148482;28;88205;-66
2022/05/26 12:30:05;;;;;;;1.38;1.08;;;22.50;87.60;;;;;;6153835;28;89110;-67
2022/05/26 12:33:33;;;;;;;1.42;1.02;;;22.50;87.60;;;;;;6146495;28;89466;-67
2022/05/26 12:36:46;;;;;;;1.50;1.15;;;22.50;87.60;;;;;;6136510;28;90005;-65
2022/05/26 12:40:07;;;;;;;2.15;1.20;;;22.50;87.60;;;;;;6145008;28;89683;-67
2022/05/26 12:43:40;;;;;;;2.38;1.17;;;22.50;87.60;;;;;;6157933;28;89028;-66
2022/05/26 12:46:53;;;;;;;1.77;1.10;;;22.50;87.50;;;;;;6127804;28;87898;-66
2022/05/26 12:50:01;;;;;;;2.55;1.00;;;22.50;87.60;;;;;;6144843;28;89119;-66
2022/05/26 12:53:12;;;;;;;1.48;1.08;;;22.50;87.60;;;;;;6144944;28;89179;-66
2022/05/26 12:56:19;;;;;;;1.10;0.90;;;22.50;87.60;;;;;;6151290;28;89266;-66
2022/05/26 12:59:24;;;;;;;1.30;1.10;;;22.50;87.50;;;;;;6139198;28;87280;-66
2022/05/26 13:02:30;;;;;;;1.25;1.10;;;22.50;87.60;;;;;;6157312;28;89072;-67
2022/05/26 13:05:35;;;;;;;1.38;1.02;;;22.50;87.40;;;;;;6153577;28;89397;-66
2022/05/26 13:08:48;;;;;;;1.33;1.00;;;22.50;87.20;;;;;;6145722;28;90228;-66
2022/05/26 13:11:53;;;;;;;1.65;1.00;;;22.50;87.20;;;;;;6136137;28;89100;-67
2022/05/26 13:14:57;;;;;;;1.50;1.05;;;22.50;87.10;;;;;;6144227;28;89071;-66
2022/05/26 13:17:59;;;;;;;1.20;0.98;;;22.50;87.10;;;;;;6157844;28;88023;-67
2022/05/26 13:21:01;;;;;;;1.35;1.00;;;22.50;87.10;;;;;;6161254;28;89125;-66
2022/05/26 13:24:14;;;;;;;1.77;1.10;;;22.50;87.20;;;;;;6153725;28;89209;-66
2022/05/26 13:27:16;;;;;;;1.10;1.00;;;22.50;87.20;;;;;;6161442;28;89158;-67
2022/05/26 13:33:47;;;;;;;1.23;0.95;;;22.50;87.40;;;;;;6148436;28;88003;-67
2022/05/26 13:36:49;;;;;;;1.10;1.00;;;22.50;87.40;;;;;;6160002;28;89010;-66
2022/05/26 13:40:09;;;;;;;1.50;1.10;;;22.50;87.40;;;;;;6143803;28;90175;-67
2022/05/26 13:43:13;;;;;;;1.23;0.93;;;22.50;87.50;;;;;;6154327;28;89038;-66
2022/05/26 13:46:22;;;;;;;1.05;0.90;;;22.50;87.40;;;;;;6157924;28;88947;-66
2022/05/26 13:49:32;;;;;;;1.90;1.10;;;22.50;87.40;;;;;;6139832;28;89482;-67
2022/05/26 13:52:35;;;;;;;1.17;1.02;;;22.50;87.40;;;;;;6147868;28;89186;-66
2022/05/26 13:55:45;;;;;;;1.00;0.90;;;22.50;87.20;;;;;;6160053;28;89024;-66
2022/05/26 13:58:55;;;;;;;1.73;1.00;;;22.50;87.20;;;;;;6159116;28;89052;-67
2022/05/26 14:02:07;;;;;;;1.13;1.00;;;22.50;87.10;;;;;;6148291;28;88360;-66
2022/05/26 14:05:19;;;;;;;1.48;1.10;;;22.40;87.00;;;;;;6147459;28;89248;-67
2022/05/26 14:08:21;;;;;;;1.27;1.10;;;22.40;87.00;;;;;;6147601;28;89093;-67
2022/05/26 14:11:36;;;;;;;1.98;1.02;;;22.40;87.10;;;;;;6148210;28;89910;-66
2022/05/26 14:14:43;;;;;;;1.27;1.00;;;22.50;87.30;;;;;;6149570;28;88284;-67
2022/05/26 14:17:55;;;;;;;1.33;1.00;;;22.40;87.30;;;;;;6136404;28;89046;-66
2022/05/26 14:21:02;;;;;;;1.10;1.00;;;22.40;87.40;;;;;;6137483;28;89038;-67
2022/05/26 14:24:07;;;;;;;1.40;1.00;;;22.40;87.40;;;;;;6146295;28;89050;-66
2022/05/26 14:27:20;;;;;;;1.05;0.85;;;22.40;87.30;;;;;;6154122;28;89134;-66
2022/05/26 14:30:36;;;;;;;1.48;1.02;;;22.50;87.20;;;;;;6146314;28;87928;-67
2022/05/26 14:33:38;;;;;;;1.52;1.17;;;22.50;87.40;;;;;;6160192;28;89035;-67
2022/05/26 14:36:40;;;;;;;1.05;0.90;;;22.50;87.50;;;;;;6159746;28;89406;-66
2022/05/26 14:39:43;;;;;;;1.20;1.10;;;22.50;87.60;;;;;;6144516;28;89066;-66
2022/05/26 14:42:47;;;;;;;2.55;1.00;;;22.50;87.60;;;;;;6140752;28;90333;-67
2022/05/26 14:45:49;;;;;;;1.05;0.93;;;22.50;87.60;;;;;;6148002;28;89091;-65
2022/05/26 14:48:51;;;;;;;1.88;1.00;;;22.50;87.70;;;;;;6150687;28;89031;-67
2022/05/26 14:51:53;;;;;;;2.17;1.10;;;22.50;89.60;;;;;;6152555;28;89019;-67
2022/05/26 14:58:17;;;;;;;4.05;1.30;;;22.50;89.60;;;;;;6150440;28;88248;-66
2022/05/26 15:01:19;;;;;;;1.48;1.30;;;22.50;89.30;;;;;;6143578;28;89692;-67
2022/05/26 15:04:21;;;;;;;2.35;1.33;;;22.50;89.60;;;;;;6139166;28;88743;-67
2022/05/26 15:07:23;;;;;;;2.28;1.33;;;22.50;89.10;;;;;;6141107;28;89205;-67
2022/05/26 15:10:26;;;;;;;2.35;1.08;;;22.50;88.90;;;;;;6149210;28;89045;-67
2022/05/26 15:13:31;;;;;;;2.35;1.50;;;22.50;89.00;;;;;;6150230;28;89022;-67
2022/05/26 15:16:33;;;;;;;1.92;1.60;;;22.50;89.30;;;;;;6150366;28;88500;-66
2022/05/26 15:19:39;;;;;;;3.80;1.40;;;22.50;89.10;;;;;;6147341;28;89103;-66
2022/05/26 15:22:42;;;;;;;2.90;1.50;;;22.50;89.10;;;;;;6145034;28;89191;-66
2022/05/26 15:29:01;;;;;;;3.88;1.50;;;22.50;89.40;;;;;;6145171;28;88654;-67
2022/05/26 15:32:07;;;;;;;3.03;1.60;;;22.50;89.60;;;;;;6137092;28;89018;-67
2022/05/26 15:35:11;;;;;;;4.72;1.70;;;22.50;89.20;;;;;;6151061;28;88411;-67
2022/05/26 15:38:14;;;;;;;3.83;1.70;;;22.50;89.30;;;;;;6137934;28;89685;-67
2022/05/26 15:41:16;;;;;;;3.22;1.60;;;22.50;89.40;;;;;;6144037;28;89231;-67
2022/05/26 15:44:21;;;;;;;2.65;1.33;;;22.50;89.60;;;;;;6147713;28;90049;-67
2022/05/26 15:47:34;;;;;;;3.60;1.63;;;22.50;89.30;;;;;;6146738;28;89232;-68
2022/05/26 15:50:36;;;;;;;3.30;1.50;;;22.50;89.80;;;;;;6146893;28;87948;-67
2022/05/26 15:53:38;;;;;;;4.75;1.73;;;22.50;90.40;;;;;;6158827;28;89057;-66
2022/05/26 15:56:41;;;;;;;3.03;1.45;;;22.50;94.20;;;;;;6156197;28;89099;-66
2022/05/26 15:59:44;;;;;;;5.38;1.67;;;22.60;92.90;;;;;;6154713;28;88507;-68
2022/05/26 16:02:47;;;;;;;4.43;1.38;;;22.60;92.20;;;;;;6158093;28;89055;-67
2022/05/26 16:05:49;;;;;;;4.70;1.60;;;22.60;91.90;;;;;;6157308;28;88246;-63
2022/05/26 16:08:51;;;;;;;5.45;1.88;;;22.60;92.10;;;;;;6143397;28;88002;-65
2022/05/26 16:11:54;;;;;;;4.53;1.65;;;22.60;92.20;;;;;;6158649;28;88997;-66
2022/05/26 16:14:58;;;;;;;2.95;1.65;;;22.70;92.10;;;;;;6144401;28;90219;-65
2022/05/26 16:18:02;;;;;;;3.72;1.58;;;22.70;92.10;;;;;;6144189;28;89064;-66
2022/05/26 16:21:04;;;;;;;7.75;1.63;;;22.70;91.80;;;;;;6154883;28;89111;-67
2022/05/26 16:24:09;;;;;;;5.40;1.67;;;22.70;91.50;;;;;;6153048;28;89430;-67
2022/05/26 16:27:11;;;;;;;4.03;1.50;;;22.70;91.50;;;;;;6155484;28;89108;-65
2022/05/26 16:30:16;;;;;;;3.17;1.60;;;22.70;92.40;;;;;;6141202;28;89124;-65
2022/05/26 16:33:20;;;;;;;3.85;1.80;;;22.70;92.90;;;;;;6146711;28;89308;-66
2022/05/26 16:36:41;;;;;;;5.35;2.22;;;22.80;92.40;;;;;;6152645;28;88339;-66
2022/05/26 16:39:44;;;;;;;6.57;1.70;;;22.80;92.60;;;;;;6145446;28;89230;-66
2022/05/26 16:42:46;;;;;;;3.22;2.08;;;22.80;92.30;;;;;;6156326;28;89014;-65
2022/05/26 16:45:49;;;;;;;4.18;2.03;;;22.80;92.40;;;;;;6143479;28;90047;-65
2022/05/26 16:48:51;;;;;;;3.45;2.20;;;22.80;91.60;;;;;;6156296;28;89354;-65
2022/05/26 16:51:54;;;;;;;4.55;2.20;;;22.80;92.80;;;;;;6143648;28;88984;-65
2022/05/26 16:54:56;;;;;;;5.00;3.10;;;22.90;91.30;;;;;;6155552;28;89182;-65
2022/05/26 16:57:58;;;;;;;4.65;3.38;;;22.90;91.00;;;;;;6150654;28;89364;-65
2022/05/26 17:01:02;;;;;;;4.60;2.97;;;22.90;90.80;;;;;;6155924;28;89157;-65
2022/05/26 17:04:05;;;;;;;3.58;2.80;;;22.80;90.80;;;;;;6161799;28;89099;-65
2022/05/26 17:07:08;;;;;;;4.25;2.70;;;22.90;90.70;;;;;;6161943;28;88445;-66
2022/05/26 17:10:12;;;;;;;4.78;2.90;;;22.90;90.70;;;;;;6160571;28;89129;-66
2022/05/26 17:23:15;;;;;;;2.55;2.33;;;22.90;90.90;;;;;;6157284;28;87400;-65
2022/05/26 17:26:25;;;;;;;3.50;2.40;;;23.00;90.50;;;;;;6151121;28;89191;-66
2022/05/26 17:29:27;;;;;;;2.80;2.20;;;23.00;90.40;;;;;;6150244;28;89141;-65
2022/05/26 17:32:30;;;;;;;2.45;2.03;;;23.00;90.30;;;;;;6160526;28;89112;-66
2022/05/26 17:35:32;;;;;;;3.55;2.20;;;23.00;90.20;;;;;;6160447;28;87953;-65
2022/05/26 17:38:36;;;;;;;2.83;2.22;;;23.00;90.10;;;;;;6155527;28;88460;-65
2022/05/26 17:41:38;;;;;;;2.78;2.13;;;23.00;90.00;;;;;;6159021;28;89377;-66
2022/05/26 17:44:40;;;;;;;2.67;2.10;;;23.00;90.00;;;;;;6160330;28;89245;-66
2022/05/26 17:47:45;;;;;;;3.28;2.20;;;23.00;90.00;;;;;;6158596;28;90036;-66
2022/05/26 17:50:48;;;;;;;5.82;2.25;;;23.00;89.90;;;;;;6154115;28;89591;-66
2022/05/26 17:53:50;;;;;;;4.95;2.25;;;23.00;89.70;;;;;;6159609;28;89068;-66
2022/05/26 17:56:53;;;;;;;5.05;2.10;;;23.00;90.30;;;;;;6156553;28;89090;-65
2022/05/26 18:03:16;;;;;;;4.55;2.38;;;23.00;90.10;;;;;;6159258;28;87243;-66
2022/05/26 18:06:18;;;;;;;6.82;2.70;;;23.00;90.20;;;;;;6166660;28;89057;-66
2022/05/26 18:09:20;;;;;;;7.15;3.22;;;23.00;90.20;;;;;;6164563;28;88059;-66
2022/05/26 18:12:23;;;;;;;19.35;5.30;;;22.90;90.40;;;;;;6145106;28;89168;-66
2022/05/26 18:15:25;;;;;;;20.20;6.43;;;23.00;90.70;;;;;;6145604;28;88931;-64
2022/05/26 18:18:30;;;;;;;18.67;6.53;;;22.90;91.60;;;;;;6142152;28;90126;-66
2022/05/26 18:21:37;;;;;;;22.48;7.53;;;22.90;91.90;;;;;;6143913;28;89451;-64
2022/05/26 18:24:39;;;;;;;20.40;7.10;;;22.90;92.20;;;;;;6138566;28;89459;-65
2022/05/26 18:27:41;;;;;;;13.63;5.57;;;22.90;92.30;;;;;;6151587;28;89214;-66
2022/05/26 18:30:45;;;;;;;14.73;5.40;;;22.90;92.20;;;;;;6141981;28;89158;-65
2022/05/26 18:33:48;;;;;;;12.35;4.72;;;22.80;92.00;;;;;;6140744;28;89064;-65
2022/05/26 18:36:52;;;;;;;12.88;4.43;;;22.90;92.00;;;;;;6137813;28;88739;-65
2022/05/26 18:39:54;;;;;;;18.30;5.50;;;22.90;91.90;;;;;;6140921;28;88267;-65
2022/05/26 18:42:56;;;;;;;21.75;6.72;;;22.90;92.00;;;;;;6138110;28;89201;-65
2022/05/26 18:45:59;;;;;;;24.58;8.02;;;22.90;92.30;;;;;;6144276;28;89090;-65
2022/05/26 18:49:03;;;;;;;29.23;9.18;;;22.90;92.80;;;;;;6142914;28;90149;-65
2022/05/26 18:52:07;;;;;;;26.00;9.02;;;22.90;93.60;;;;;;6150448;28;89184;-66
2022/05/26 18:55:12;;;;;;;21.50;7.55;;;22.90;93.70;;;;;;6146887;28;89586;-67
2022/05/26 18:58:14;;;;;;;20.73;7.00;;;22.90;93.40;;;;;;6142197;28;87757;-64
2022/05/26 19:01:18;;;;;;;18.98;6.20;;;23.00;93.20;;;;;;6140370;28;89547;-65
2022/05/26 19:04:22;;;;;;;16.08;5.88;;;23.00;92.50;;;;;;6151168;28;90395;-66
2022/05/26 19:07:24;;;;;;;13.27;5.30;;;23.00;92.10;;;;;;6153210;28;89290;-65
2022/05/26 19:10:26;;;;;;;12.32;4.90;;;23.10;92.10;;;;;;6159808;28;88338;-65
2022/05/26 19:13:32;;;;;;;12.88;4.90;;;23.10;91.70;;;;;;6148067;28;89108;-65
2022/05/26 19:16:34;;;;;;;9.95;4.47;;;23.10;91.70;;;;;;6155868;28;89055;-65
2022/05/26 19:19:37;;;;;;;13.65;4.50;;;23.10;91.70;;;;;;6147510;28;90070;-66
2022/05/26 19:22:39;;;;;;;14.40;4.88;;;23.10;91.60;;;;;;6151925;28;89128;-65
2022/05/26 19:25:49;;;;;;;11.52;4.35;;;23.20;99.00;;;;;;6143730;28;89468;-66
2022/05/26 19:28:52;;;;;;;11.00;4.53;;;23.30;95.80;;;;;;6143988;28;88426;-67
2022/05/26 19:31:55;;;;;;;10.98;4.38;;;23.30;94.20;;;;;;6136949;28;89071;-67
2022/05/26 19:34:58;;;;;;;10.13;4.10;;;23.40;93.20;;;;;;6140374;28;89054;-68
2022/05/26 19:38:00;;;;;;;9.10;3.83;;;23.40;92.60;;;;;;6135896;28;91079;-67
2022/05/26 19:41:02;;;;;;;9.93;3.90;;;23.40;92.20;;;;;;6141600;28;90119;-68
2022/05/26 19:44:06;;;;;;;7.75;3.65;;;23.40;91.90;;;;;;6138662;28;89239;-68
2022/05/26 19:47:10;;;;;;;9.43;3.95;;;23.40;91.70;;;;;;6138073;28;89181;-68
2022/05/26 19:50:15;;;;;;;8.48;3.50;;;23.40;91.60;;;;;;6138503;28;89998;-67
2022/05/26 19:53:17;;;;;;;8.73;4.00;;;23.30;91.60;;;;;;6144705;28;89290;-67
2022/05/26 19:56:19;;;;;;;9.70;4.05;;;23.30;91.40;;;;;;6142804;28;89975;-67
2022/05/26 19:59:21;;;;;;;8.30;3.47;;;23.30;91.40;;;;;;6133031;28;89078;-68
2022/05/26 20:02:23;;;;;;;7.55;3.38;;;23.30;91.40;;;;;;6139092;28;88377;-68
2022/05/26 20:05:32;;;;;;;6.85;3.50;;;23.30;91.40;;;;;;6141020;28;89202;-68
2022/05/26 20:08:34;;;;;;;9.65;3.28;;;23.20;91.30;;;;;;6133189;28;89087;-68
2022/05/26 20:11:36;;;;;;;6.43;2.92;;;23.20;91.30;;;;;;6147794;28;87221;-67
2022/05/26 20:14:38;;;;;;;7.25;3.10;;;23.30;91.40;;;;;;6153678;28;89092;-67
2022/05/26 20:17:41;;;;;;;5.90;2.67;;;23.20;91.10;;;;;;6138839;28;89031;-68
2022/05/26 20:20:44;;;;;;;7.20;2.75;;;23.20;91.00;;;;;;6139761;28;90444;-68
2022/05/26 20:23:47;;;;;;;5.05;2.55;;;23.10;90.90;;;;;;6137703;28;89121;-68
2022/05/26 20:26:49;;;;;;;4.57;2.40;;;23.10;90.90;;;;;;6139640;28;88180;-68
2022/05/26 20:29:51;;;;;;;5.68;2.70;;;23.10;90.90;;;;;;6137172;28;89080;-68
2022/05/26 20:32:53;;;;;;;5.38;2.47;;;23.10;90.90;;;;;;6138105;28;89414;-68
2022/05/26 20:35:56;;;;;;;6.10;2.55;;;23.10;91.30;;;;;;6144599;28;89069;-68
2022/05/26 20:38:58;;;;;;;5.65;2.60;;;23.00;90.80;;;;;;6139534;28;89274;-67
2022/05/26 20:42:00;;;;;;;4.93;2.72;;;23.10;90.90;;;;;;6137281;28;88263;-68
